sensor_id;sensor_type;location;lat;lon;timestamp;P1;durP1;ratioP1;P2;durP2;ratioP2
77117;SDS011;66072;50.238;19.228;2023-04-06T00:01:50;22.20;;;11.10;;
77117;SDS011;66072;50.238;19.228;2023-04-06T00:04:18;20.70;;;11.00;;
77117;SDS011;66072;50.238;19.228;2023-04-06T00:06:46;23.80;;;12.40;;
77117;SDS011;66072;50.238;19.228;2023-04-06T00:09:13;20.10;;;11.10;;
77117;SDS011;66072;50.238;19.228;2023-04-06T00:11:41;23.50;;;11.30;;
77117;SDS011;66072;50.238;19.228;2023-04-06T00:14:08;18.60;;;10.70;;
77117;SDS011;66072;50.238;19.228;2023-04-06T00:16:36;23.30;;;10.90;;
77117;SDS011;66072;50.238;19.228;2023-04-06T00:19:03;19.30;;;11.20;;
77117;SDS011;66072;50.238;19.228;2023-04-06T00:21:31;22.70;;;10.60;;
77117;SDS011;66072;50.238;19.228;2023-04-06T00:23:59;18.40;;;9.30;;
77117;SDS011;66072;50.238;19.228;2023-04-06T00:26:26;17.30;;;9.60;;
77117;SDS011;66072;50.238;19.228;2023-04-06T00:28:54;20.00;;;11.00;;
77117;SDS011;66072;50.238;19.228;2023-04-06T00:31:21;17.10;;;10.60;;
77117;SDS011;66072;50.238;19.228;2023-04-06T00:33:49;18.40;;;9.90;;
77117;SDS011;66072;50.238;19.228;2023-04-06T00:36:17;15.70;;;10.60;;
77117;SDS011;66072;50.238;19.228;2023-04-06T00:38:44;19.50;;;9.70;;
77117;SDS011;66072;50.238;19.228;2023-04-06T00:41:12;19.20;;;10.50;;
77117;SDS011;66072;50.238;19.228;2023-04-06T00:43:39;20.90;;;11.90;;
77117;SDS011;66072;50.238;19.228;2023-04-06T00:46:07;20.50;;;11.60;;
77117;SDS011;66072;50.238;19.228;2023-04-06T00:48:35;23.70;;;12.80;;
77117;SDS011;66072;50.238;19.228;2023-04-06T00:51:03;29.50;;;15.30;;
77117;SDS011;66072;50.238;19.228;2023-04-06T00:53:30;31.90;;;14.60;;
77117;SDS011;66072;50.238;19.228;2023-04-06T00:55:58;29.40;;;15.10;;
77117;SDS011;66072;50.238;19.228;2023-04-06T00:58:26;22.40;;;13.20;;
77117;SDS011;66072;50.238;19.228;2023-04-06T01:00:53;24.30;;;12.90;;
77117;SDS011;66072;50.238;19.228;2023-04-06T01:03:21;24.00;;;12.60;;
77117;SDS011;66072;50.238;19.228;2023-04-06T01:05:49;26.90;;;14.90;;
77117;SDS011;66072;50.238;19.228;2023-04-06T01:08:18;25.60;;;13.80;;
77117;SDS011;66072;50.238;19.228;2023-04-06T01:10:46;24.20;;;13.90;;
77117;SDS011;66072;50.238;19.228;2023-04-06T01:13:13;29.40;;;14.60;;
77117;SDS011;66072;50.238;19.228;2023-04-06T01:15:41;23.00;;;12.90;;
77117;SDS011;66072;50.238;19.228;2023-04-06T01:18:09;21.20;;;12.10;;
77117;SDS011;66072;50.238;19.228;2023-04-06T01:20:37;27.70;;;14.10;;
77117;SDS011;66072;50.238;19.228;2023-04-06T01:23:04;24.20;;;15.40;;
77117;SDS011;66072;50.238;19.228;2023-04-06T01:25:32;26.30;;;15.20;;
77117;SDS011;66072;50.238;19.228;2023-04-06T01:28:00;26.50;;;15.70;;
77117;SDS011;66072;50.238;19.228;2023-04-06T01:30:27;27.20;;;14.90;;
77117;SDS011;66072;50.238;19.228;2023-04-06T01:32:55;17.90;;;11.90;;
77117;SDS011;66072;50.238;19.228;2023-04-06T01:35:22;23.70;;;12.50;;
77117;SDS011;66072;50.238;19.228;2023-04-06T01:37:50;24.90;;;14.60;;
77117;SDS011;66072;50.238;19.228;2023-04-06T01:40:18;24.50;;;13.50;;
77117;SDS011;66072;50.238;19.228;2023-04-06T01:42:45;23.50;;;11.90;;
77117;SDS011;66072;50.238;19.228;2023-04-06T01:45:13;20.00;;;11.30;;
77117;SDS011;66072;50.238;19.228;2023-04-06T01:47:41;27.10;;;13.20;;
77117;SDS011;66072;50.238;19.228;2023-04-06T01:50:08;24.10;;;13.40;;
77117;SDS011;66072;50.238;19.228;2023-04-06T01:52:37;27.70;;;15.30;;
77117;SDS011;66072;50.238;19.228;2023-04-06T01:55:05;24.10;;;12.20;;
77117;SDS011;66072;50.238;19.228;2023-04-06T01:57:32;23.00;;;13.10;;
77117;SDS011;66072;50.238;19.228;2023-04-06T02:00:00;24.30;;;13.80;;
77117;SDS011;66072;50.238;19.228;2023-04-06T02:02:27;30.90;;;14.00;;
77117;SDS011;66072;50.238;19.228;2023-04-06T02:04:56;24.20;;;13.30;;
77117;SDS011;66072;50.238;19.228;2023-04-06T02:07:23;23.80;;;13.30;;
77117;SDS011;66072;50.238;19.228;2023-04-06T02:09:53;27.60;;;14.80;;
77117;SDS011;66072;50.238;19.228;2023-04-06T02:12:21;26.60;;;15.50;;
77117;SDS011;66072;50.238;19.228;2023-04-06T02:14:49;19.00;;;12.10;;
77117;SDS011;66072;50.238;19.228;2023-04-06T02:17:17;18.00;;;11.40;;
77117;SDS011;66072;50.238;19.228;2023-04-06T02:19:44;18.20;;;11.20;;
77117;SDS011;66072;50.238;19.228;2023-04-06T02:22:12;19.30;;;10.00;;
77117;SDS011;66072;50.238;19.228;2023-04-06T02:24:39;25.30;;;13.40;;
77117;SDS011;66072;50.238;19.228;2023-04-06T02:27:07;23.80;;;12.80;;
77117;SDS011;66072;50.238;19.228;2023-04-06T02:29:35;29.40;;;13.00;;
77117;SDS011;66072;50.238;19.228;2023-04-06T02:32:02;22.10;;;12.80;;
77117;SDS011;66072;50.238;19.228;2023-04-06T02:34:30;20.20;;;11.10;;
77117;SDS011;66072;50.238;19.228;2023-04-06T02:36:58;21.70;;;11.50;;
77117;SDS011;66072;50.238;19.228;2023-04-06T02:39:25;14.40;;;8.00;;
77117;SDS011;66072;50.238;19.228;2023-04-06T02:41:53;21.90;;;10.90;;
77117;SDS011;66072;50.238;19.228;2023-04-06T02:44:21;22.00;;;11.30;;
77117;SDS011;66072;50.238;19.228;2023-04-06T02:46:48;20.20;;;12.40;;
77117;SDS011;66072;50.238;19.228;2023-04-06T02:49:16;29.90;;;15.20;;
77117;SDS011;66072;50.238;19.228;2023-04-06T02:51:43;24.50;;;13.10;;
77117;SDS011;66072;50.238;19.228;2023-04-06T02:54:11;21.30;;;10.00;;
77117;SDS011;66072;50.238;19.228;2023-04-06T02:56:38;29.80;;;14.40;;
77117;SDS011;66072;50.238;19.228;2023-04-06T02:59:06;18.80;;;9.90;;
77117;SDS011;66072;50.238;19.228;2023-04-06T03:01:34;27.10;;;14.80;;
77117;SDS011;66072;50.238;19.228;2023-04-06T03:04:02;20.10;;;12.20;;
77117;SDS011;66072;50.238;19.228;2023-04-06T03:06:30;21.80;;;12.20;;
77117;SDS011;66072;50.238;19.228;2023-04-06T03:08:57;24.10;;;13.60;;
77117;SDS011;66072;50.238;19.228;2023-04-06T03:11:25;20.50;;;12.30;;
77117;SDS011;66072;50.238;19.228;2023-04-06T03:13:52;16.40;;;9.70;;
77117;SDS011;66072;50.238;19.228;2023-04-06T03:16:20;15.50;;;9.40;;
77117;SDS011;66072;50.238;19.228;2023-04-06T03:18:48;22.40;;;11.80;;
77117;SDS011;66072;50.238;19.228;2023-04-06T03:21:15;22.90;;;12.60;;
77117;SDS011;66072;50.238;19.228;2023-04-06T03:23:43;24.80;;;13.30;;
77117;SDS011;66072;50.238;19.228;2023-04-06T03:26:11;24.80;;;13.80;;
77117;SDS011;66072;50.238;19.228;2023-04-06T03:28:38;28.10;;;15.20;;
77117;SDS011;66072;50.238;19.228;2023-04-06T03:31:06;15.40;;;8.80;;
77117;SDS011;66072;50.238;19.228;2023-04-06T03:33:33;15.60;;;10.90;;
77117;SDS011;66072;50.238;19.228;2023-04-06T03:36:01;24.20;;;13.50;;
77117;SDS011;66072;50.238;19.228;2023-04-06T03:38:29;20.00;;;11.20;;
77117;SDS011;66072;50.238;19.228;2023-04-06T03:40:56;28.50;;;15.50;;
77117;SDS011;66072;50.238;19.228;2023-04-06T03:43:24;27.10;;;14.20;;
77117;SDS011;66072;50.238;19.228;2023-04-06T03:45:51;23.00;;;13.30;;
77117;SDS011;66072;50.238;19.228;2023-04-06T03:48:19;23.90;;;13.60;;
77117;SDS011;66072;50.238;19.228;2023-04-06T03:50:46;22.20;;;12.10;;
77117;SDS011;66072;50.238;19.228;2023-04-06T03:53:14;23.10;;;12.90;;
77117;SDS011;66072;50.238;19.228;2023-04-06T03:55:42;20.80;;;11.20;;
77117;SDS011;66072;50.238;19.228;2023-04-06T03:58:09;20.30;;;11.90;;
77117;SDS011;66072;50.238;19.228;2023-04-06T04:00:37;18.30;;;10.40;;
77117;SDS011;66072;50.238;19.228;2023-04-06T04:03:05;14.20;;;11.00;;
77117;SDS011;66072;50.238;19.228;2023-04-06T04:05:32;21.00;;;11.50;;
77117;SDS011;66072;50.238;19.228;2023-04-06T04:08:00;18.50;;;11.30;;
77117;SDS011;66072;50.238;19.228;2023-04-06T04:10:28;21.60;;;13.30;;
77117;SDS011;66072;50.238;19.228;2023-04-06T04:12:55;16.80;;;9.50;;
77117;SDS011;66072;50.238;19.228;2023-04-06T04:15:23;15.20;;;10.20;;
77117;SDS011;66072;50.238;19.228;2023-04-06T04:17:50;21.10;;;11.50;;
77117;SDS011;66072;50.238;19.228;2023-04-06T04:20:18;21.50;;;10.60;;
77117;SDS011;66072;50.238;19.228;2023-04-06T04:22:46;24.30;;;14.40;;
77117;SDS011;66072;50.238;19.228;2023-04-06T04:25:13;28.40;;;15.90;;
77117;SDS011;66072;50.238;19.228;2023-04-06T04:27:41;21.60;;;11.90;;
77117;SDS011;66072;50.238;19.228;2023-04-06T04:30:09;23.10;;;12.60;;
77117;SDS011;66072;50.238;19.228;2023-04-06T04:32:36;18.00;;;10.90;;
77117;SDS011;66072;50.238;19.228;2023-04-06T04:35:04;25.20;;;15.30;;
77117;SDS011;66072;50.238;19.228;2023-04-06T04:37:32;28.40;;;14.10;;
77117;SDS011;66072;50.238;19.228;2023-04-06T04:39:59;31.90;;;16.50;;
77117;SDS011;66072;50.238;19.228;2023-04-06T04:42:27;26.90;;;13.40;;
77117;SDS011;66072;50.238;19.228;2023-04-06T04:44:55;24.70;;;15.40;;
77117;SDS011;66072;50.238;19.228;2023-04-06T04:47:22;12.90;;;6.90;;
77117;SDS011;66072;50.238;19.228;2023-04-06T04:49:50;20.00;;;12.30;;
77117;SDS011;66072;50.238;19.228;2023-04-06T04:52:17;21.50;;;12.70;;
77117;SDS011;66072;50.238;19.228;2023-04-06T04:54:45;20.20;;;12.80;;
77117;SDS011;66072;50.238;19.228;2023-04-06T04:57:13;19.90;;;12.30;;
77117;SDS011;66072;50.238;19.228;2023-04-06T04:59:40;29.00;;;15.30;;
77117;SDS011;66072;50.238;19.228;2023-04-06T05:02:08;29.80;;;16.60;;
77117;SDS011;66072;50.238;19.228;2023-04-06T05:04:36;26.90;;;15.90;;
77117;SDS011;66072;50.238;19.228;2023-04-06T05:07:07;29.30;;;16.80;;
77117;SDS011;66072;50.238;19.228;2023-04-06T05:09:36;31.60;;;16.70;;
77117;SDS011;66072;50.238;19.228;2023-04-06T05:12:03;23.20;;;12.50;;
77117;SDS011;66072;50.238;19.228;2023-04-06T05:14:31;20.40;;;11.40;;
77117;SDS011;66072;50.238;19.228;2023-04-06T05:16:59;21.20;;;10.70;;
77117;SDS011;66072;50.238;19.228;2023-04-06T05:19:26;18.60;;;12.40;;
77117;SDS011;66072;50.238;19.228;2023-04-06T05:21:54;22.40;;;14.50;;
77117;SDS011;66072;50.238;19.228;2023-04-06T05:24:22;21.80;;;13.00;;
77117;SDS011;66072;50.238;19.228;2023-04-06T05:26:49;19.60;;;11.90;;
77117;SDS011;66072;50.238;19.228;2023-04-06T05:29:17;18.40;;;11.30;;
77117;SDS011;66072;50.238;19.228;2023-04-06T05:31:45;19.70;;;11.10;;
77117;SDS011;66072;50.238;19.228;2023-04-06T05:34:13;20.80;;;12.00;;
77117;SDS011;66072;50.238;19.228;2023-04-06T05:36:41;30.80;;;16.40;;
77117;SDS011;66072;50.238;19.228;2023-04-06T05:39:08;29.80;;;17.60;;
77117;SDS011;66072;50.238;19.228;2023-04-06T05:41:36;27.20;;;15.90;;
77117;SDS011;66072;50.238;19.228;2023-04-06T05:44:04;20.40;;;12.50;;
77117;SDS011;66072;50.238;19.228;2023-04-06T05:46:32;23.10;;;12.70;;
77117;SDS011;66072;50.238;19.228;2023-04-06T05:48:59;25.00;;;14.50;;
77117;SDS011;66072;50.238;19.228;2023-04-06T05:51:27;15.80;;;9.40;;
77117;SDS011;66072;50.238;19.228;2023-04-06T05:53:54;20.50;;;12.20;;
77117;SDS011;66072;50.238;19.228;2023-04-06T05:56:22;23.20;;;13.30;;
77117;SDS011;66072;50.238;19.228;2023-04-06T05:58:50;28.90;;;15.10;;
77117;SDS011;66072;50.238;19.228;2023-04-06T06:01:17;22.80;;;13.40;;
77117;SDS011;66072;50.238;19.228;2023-04-06T06:03:45;24.20;;;14.40;;
77117;SDS011;66072;50.238;19.228;2023-04-06T06:06:12;24.00;;;13.60;;
77117;SDS011;66072;50.238;19.228;2023-04-06T06:08:40;26.10;;;14.80;;
77117;SDS011;66072;50.238;19.228;2023-04-06T06:11:07;26.40;;;16.10;;
77117;SDS011;66072;50.238;19.228;2023-04-06T06:13:35;22.60;;;13.80;;
77117;SDS011;66072;50.238;19.228;2023-04-06T06:16:03;27.70;;;17.60;;
77117;SDS011;66072;50.238;19.228;2023-04-06T06:18:31;25.70;;;16.50;;
77117;SDS011;66072;50.238;19.228;2023-04-06T06:20:58;28.90;;;17.20;;
77117;SDS011;66072;50.238;19.228;2023-04-06T06:23:26;23.00;;;12.80;;
77117;SDS011;66072;50.238;19.228;2023-04-06T06:25:53;31.30;;;17.40;;
77117;SDS011;66072;50.238;19.228;2023-04-06T06:28:21;22.80;;;15.10;;
77117;SDS011;66072;50.238;19.228;2023-04-06T06:30:48;30.10;;;17.10;;
77117;SDS011;66072;50.238;19.228;2023-04-06T06:33:16;34.20;;;19.70;;
77117;SDS011;66072;50.238;19.228;2023-04-06T06:35:44;24.50;;;16.00;;
77117;SDS011;66072;50.238;19.228;2023-04-06T06:38:11;28.20;;;15.60;;
77117;SDS011;66072;50.238;19.228;2023-04-06T06:40:39;29.20;;;15.20;;
77117;SDS011;66072;50.238;19.228;2023-04-06T06:43:08;17.80;;;10.40;;
77117;SDS011;66072;50.238;19.228;2023-04-06T06:45:35;29.30;;;16.70;;
77117;SDS011;66072;50.238;19.228;2023-04-06T06:48:03;33.00;;;16.30;;
77117;SDS011;66072;50.238;19.228;2023-04-06T06:50:30;26.40;;;14.30;;
77117;SDS011;66072;50.238;19.228;2023-04-06T06:52:58;29.60;;;14.50;;
77117;SDS011;66072;50.238;19.228;2023-04-06T06:55:26;29.00;;;16.60;;
77117;SDS011;66072;50.238;19.228;2023-04-06T06:57:53;21.00;;;11.40;;
77117;SDS011;66072;50.238;19.228;2023-04-06T07:00:21;17.10;;;9.60;;
77117;SDS011;66072;50.238;19.228;2023-04-06T07:02:49;15.00;;;10.20;;
77117;SDS011;66072;50.238;19.228;2023-04-06T07:05:17;19.40;;;11.10;;
77117;SDS011;66072;50.238;19.228;2023-04-06T07:07:55;21.40;;;11.60;;
77117;SDS011;66072;50.238;19.228;2023-04-06T07:10:23;21.60;;;11.80;;
77117;SDS011;66072;50.238;19.228;2023-04-06T07:12:50;19.70;;;10.50;;
77117;SDS011;66072;50.238;19.228;2023-04-06T07:15:18;16.80;;;10.30;;
77117;SDS011;66072;50.238;19.228;2023-04-06T07:17:45;15.30;;;10.00;;
77117;SDS011;66072;50.238;19.228;2023-04-06T07:20:13;22.00;;;12.40;;
77117;SDS011;66072;50.238;19.228;2023-04-06T07:22:42;18.20;;;9.60;;
77117;SDS011;66072;50.238;19.228;2023-04-06T07:25:10;14.40;;;8.20;;
77117;SDS011;66072;50.238;19.228;2023-04-06T07:27:38;20.50;;;10.40;;
77117;SDS011;66072;50.238;19.228;2023-04-06T07:30:06;12.60;;;7.30;;
77117;SDS011;66072;50.238;19.228;2023-04-06T07:32:35;13.20;;;7.80;;
77117;SDS011;66072;50.238;19.228;2023-04-06T07:35:03;11.10;;;7.20;;
77117;SDS011;66072;50.238;19.228;2023-04-06T07:37:31;9.10;;;5.70;;
77117;SDS011;66072;50.238;19.228;2023-04-06T07:39:59;17.80;;;8.80;;
77117;SDS011;66072;50.238;19.228;2023-04-06T07:42:26;13.60;;;8.20;;
77117;SDS011;66072;50.238;19.228;2023-04-06T07:44:54;11.40;;;7.60;;
77117;SDS011;66072;50.238;19.228;2023-04-06T07:47:22;10.40;;;6.40;;
77117;SDS011;66072;50.238;19.228;2023-04-06T07:49:50;12.60;;;7.20;;
77117;SDS011;66072;50.238;19.228;2023-04-06T07:52:18;14.90;;;7.90;;
77117;SDS011;66072;50.238;19.228;2023-04-06T07:54:45;11.80;;;7.50;;
77117;SDS011;66072;50.238;19.228;2023-04-06T07:57:13;9.30;;;6.00;;
77117;SDS011;66072;50.238;19.228;2023-04-06T07:59:41;7.10;;;4.50;;
77117;SDS011;66072;50.238;19.228;2023-04-06T08:02:08;8.90;;;5.90;;
77117;SDS011;66072;50.238;19.228;2023-04-06T08:04:36;12.50;;;7.20;;
77117;SDS011;66072;50.238;19.228;2023-04-06T08:07:04;12.00;;;7.60;;
77117;SDS011;66072;50.238;19.228;2023-04-06T08:09:31;14.60;;;6.70;;
77117;SDS011;66072;50.238;19.228;2023-04-06T08:11:59;9.30;;;6.50;;
77117;SDS011;66072;50.238;19.228;2023-04-06T08:14:27;10.00;;;6.30;;
77117;SDS011;66072;50.238;19.228;2023-04-06T08:16:54;11.70;;;6.80;;
77117;SDS011;66072;50.238;19.228;2023-04-06T08:19:22;11.60;;;6.90;;
77117;SDS011;66072;50.238;19.228;2023-04-06T08:21:50;8.20;;;5.50;;
77117;SDS011;66072;50.238;19.228;2023-04-06T08:24:17;10.10;;;6.30;;
77117;SDS011;66072;50.238;19.228;2023-04-06T08:26:45;11.40;;;7.50;;
77117;SDS011;66072;50.238;19.228;2023-04-06T08:29:12;6.90;;;4.70;;
77117;SDS011;66072;50.238;19.228;2023-04-06T08:31:40;9.70;;;5.80;;
77117;SDS011;66072;50.238;19.228;2023-04-06T08:34:08;9.60;;;6.50;;
77117;SDS011;66072;50.238;19.228;2023-04-06T08:36:39;6.90;;;4.60;;
77117;SDS011;66072;50.238;19.228;2023-04-06T08:39:07;10.30;;;6.50;;
77117;SDS011;66072;50.238;19.228;2023-04-06T08:41:34;9.80;;;6.40;;
77117;SDS011;66072;50.238;19.228;2023-04-06T08:44:02;12.00;;;7.40;;
77117;SDS011;66072;50.238;19.228;2023-04-06T08:46:30;14.10;;;9.00;;
77117;SDS011;66072;50.238;19.228;2023-04-06T08:49:01;8.10;;;4.60;;
77117;SDS011;66072;50.238;19.228;2023-04-06T08:51:30;6.20;;;4.10;;
77117;SDS011;66072;50.238;19.228;2023-04-06T08:53:58;9.10;;;6.50;;
77117;SDS011;66072;50.238;19.228;2023-04-06T08:56:27;10.70;;;7.30;;
77117;SDS011;66072;50.238;19.228;2023-04-06T08:58:55;9.00;;;6.30;;
77117;SDS011;66072;50.238;19.228;2023-04-06T09:01:27;8.80;;;5.90;;
77117;SDS011;66072;50.238;19.228;2023-04-06T09:03:56;10.20;;;6.20;;
77117;SDS011;66072;50.238;19.228;2023-04-06T09:06:26;8.50;;;5.90;;
77117;SDS011;66072;50.238;19.228;2023-04-06T09:08:54;10.10;;;7.00;;
77117;SDS011;66072;50.238;19.228;2023-04-06T09:11:22;10.50;;;7.20;;
77117;SDS011;66072;50.238;19.228;2023-04-06T09:13:53;9.50;;;5.40;;
77117;SDS011;66072;50.238;19.228;2023-04-06T09:16:23;13.00;;;7.90;;
77117;SDS011;66072;50.238;19.228;2023-04-06T09:18:51;10.90;;;7.00;;
77117;SDS011;66072;50.238;19.228;2023-04-06T09:21:18;12.60;;;9.00;;
77117;SDS011;66072;50.238;19.228;2023-04-06T09:24:00;12.60;;;7.60;;
77117;SDS011;66072;50.238;19.228;2023-04-06T09:26:29;10.90;;;6.50;;
77117;SDS011;66072;50.238;19.228;2023-04-06T09:28:57;9.30;;;6.60;;
77117;SDS011;66072;50.238;19.228;2023-04-06T09:31:29;8.70;;;5.80;;
77117;SDS011;66072;50.238;19.228;2023-04-06T09:33:58;13.20;;;7.90;;
77117;SDS011;66072;50.238;19.228;2023-04-06T09:36:33;12.10;;;8.10;;
77117;SDS011;66072;50.238;19.228;2023-04-06T09:39:03;11.40;;;7.70;;
77117;SDS011;66072;50.238;19.228;2023-04-06T09:41:34;11.90;;;8.00;;
77117;SDS011;66072;50.238;19.228;2023-04-06T09:44:06;14.40;;;9.00;;
77117;SDS011;66072;50.238;19.228;2023-04-06T09:46:36;9.20;;;6.80;;
77117;SDS011;66072;50.238;19.228;2023-04-06T09:49:22;11.50;;;7.70;;
77117;SDS011;66072;50.238;19.228;2023-04-06T09:51:57;11.40;;;8.10;;
77117;SDS011;66072;50.238;19.228;2023-04-06T09:54:30;13.50;;;8.60;;
77117;SDS011;66072;50.238;19.228;2023-04-06T09:57:15;10.30;;;6.10;;
77117;SDS011;66072;50.238;19.228;2023-04-06T10:00:07;9.80;;;7.10;;
77117;SDS011;66072;50.238;19.228;2023-04-06T10:08:09;11.90;;;6.70;;
77117;SDS011;66072;50.238;19.228;2023-04-06T10:10:38;10.70;;;6.30;;
77117;SDS011;66072;50.238;19.228;2023-04-06T10:13:05;10.70;;;7.90;;
77117;SDS011;66072;50.238;19.228;2023-04-06T10:15:34;10.50;;;7.30;;
77117;SDS011;66072;50.238;19.228;2023-04-06T10:18:01;10.50;;;7.10;;
77117;SDS011;66072;50.238;19.228;2023-04-06T10:20:42;11.00;;;6.20;;
77117;SDS011;66072;50.238;19.228;2023-04-06T10:25:53;8.80;;;6.70;;
77117;SDS011;66072;50.238;19.228;2023-04-06T10:28:22;8.90;;;6.30;;
77117;SDS011;66072;50.238;19.228;2023-04-06T10:30:56;11.40;;;8.20;;
77117;SDS011;66072;50.238;19.228;2023-04-06T10:33:25;13.00;;;7.70;;
77117;SDS011;66072;50.238;19.228;2023-04-06T10:35:53;9.10;;;6.20;;
77117;SDS011;66072;50.238;19.228;2023-04-06T10:38:21;9.20;;;5.40;;
77117;SDS011;66072;50.238;19.228;2023-04-06T10:41:06;7.90;;;6.10;;
77117;SDS011;66072;50.238;19.228;2023-04-06T10:43:35;10.40;;;5.70;;
77117;SDS011;66072;50.238;19.228;2023-04-06T10:46:05;8.50;;;5.80;;
77117;SDS011;66072;50.238;19.228;2023-04-06T10:48:38;6.80;;;4.20;;
77117;SDS011;66072;50.238;19.228;2023-04-06T10:51:07;10.30;;;6.30;;
77117;SDS011;66072;50.238;19.228;2023-04-06T10:53:36;8.50;;;5.50;;
77117;SDS011;66072;50.238;19.228;2023-04-06T10:56:04;6.90;;;4.80;;
77117;SDS011;66072;50.238;19.228;2023-04-06T10:58:37;9.90;;;5.30;;
77117;SDS011;66072;50.238;19.228;2023-04-06T11:01:05;9.10;;;4.90;;
77117;SDS011;66072;50.238;19.228;2023-04-06T11:03:41;7.90;;;5.40;;
77117;SDS011;66072;50.238;19.228;2023-04-06T11:06:20;7.90;;;5.70;;
77117;SDS011;66072;50.238;19.228;2023-04-06T11:08:57;8.10;;;5.40;;
77117;SDS011;66072;50.238;19.228;2023-04-06T11:11:25;10.30;;;5.60;;
77117;SDS011;66072;50.238;19.228;2023-04-06T11:13:55;7.60;;;5.90;;
77117;SDS011;66072;50.238;19.228;2023-04-06T11:16:25;7.80;;;5.50;;
77117;SDS011;66072;50.238;19.228;2023-04-06T11:21:33;8.60;;;5.80;;
77117;SDS011;66072;50.238;19.228;2023-04-06T11:26:39;9.00;;;5.60;;
77117;SDS011;66072;50.238;19.228;2023-04-06T11:29:07;6.00;;;4.50;;
77117;SDS011;66072;50.238;19.228;2023-04-06T11:31:39;6.60;;;4.60;;
77117;SDS011;66072;50.238;19.228;2023-04-06T11:34:11;7.90;;;5.40;;
77117;SDS011;66072;50.238;19.228;2023-04-06T11:36:40;6.30;;;4.40;;
77117;SDS011;66072;50.238;19.228;2023-04-06T11:39:09;8.60;;;6.20;;
77117;SDS011;66072;50.238;19.228;2023-04-06T11:41:37;9.60;;;5.20;;
77117;SDS011;66072;50.238;19.228;2023-04-06T11:44:05;8.80;;;5.40;;
77117;SDS011;66072;50.238;19.228;2023-04-06T11:46:33;7.80;;;5.40;;
77117;SDS011;66072;50.238;19.228;2023-04-06T11:49:01;7.00;;;4.40;;
77117;SDS011;66072;50.238;19.228;2023-04-06T11:51:29;8.90;;;4.60;;
77117;SDS011;66072;50.238;19.228;2023-04-06T11:53:57;9.20;;;5.70;;
77117;SDS011;66072;50.238;19.228;2023-04-06T11:56:25;8.90;;;5.40;;
77117;SDS011;66072;50.238;19.228;2023-04-06T11:58:57;8.80;;;5.30;;
77117;SDS011;66072;50.238;19.228;2023-04-06T12:01:25;8.80;;;5.20;;
77117;SDS011;66072;50.238;19.228;2023-04-06T12:03:53;7.50;;;4.50;;
77117;SDS011;66072;50.238;19.228;2023-04-06T12:06:21;8.90;;;7.00;;
77117;SDS011;66072;50.238;19.228;2023-04-06T12:08:48;11.60;;;6.70;;
77117;SDS011;66072;50.238;19.228;2023-04-06T12:11:16;9.90;;;6.20;;
77117;SDS011;66072;50.238;19.228;2023-04-06T12:13:44;8.90;;;6.90;;
77117;SDS011;66072;50.238;19.228;2023-04-06T12:16:11;10.40;;;7.70;;
77117;SDS011;66072;50.238;19.228;2023-04-06T12:18:39;6.90;;;4.70;;
77117;SDS011;66072;50.238;19.228;2023-04-06T12:21:07;9.30;;;5.80;;
77117;SDS011;66072;50.238;19.228;2023-04-06T12:23:35;12.60;;;7.00;;
77117;SDS011;66072;50.238;19.228;2023-04-06T12:26:02;9.80;;;6.20;;
77117;SDS011;66072;50.238;19.228;2023-04-06T12:28:30;10.20;;;5.70;;
77117;SDS011;66072;50.238;19.228;2023-04-06T12:30:58;8.40;;;4.80;;
77117;SDS011;66072;50.238;19.228;2023-04-06T12:33:25;9.70;;;5.10;;
77117;SDS011;66072;50.238;19.228;2023-04-06T12:35:53;10.20;;;5.70;;
77117;SDS011;66072;50.238;19.228;2023-04-06T12:38:20;8.20;;;4.90;;
77117;SDS011;66072;50.238;19.228;2023-04-06T12:40:48;4.90;;;3.50;;
77117;SDS011;66072;50.238;19.228;2023-04-06T12:43:16;9.10;;;5.30;;
77117;SDS011;66072;50.238;19.228;2023-04-06T12:45:43;7.90;;;4.80;;
77117;SDS011;66072;50.238;19.228;2023-04-06T12:48:11;10.00;;;6.00;;
77117;SDS011;66072;50.238;19.228;2023-04-06T12:50:38;8.20;;;4.20;;
77117;SDS011;66072;50.238;19.228;2023-04-06T12:53:06;8.30;;;6.10;;
77117;SDS011;66072;50.238;19.228;2023-04-06T12:55:33;10.50;;;6.60;;
77117;SDS011;66072;50.238;19.228;2023-04-06T12:58:01;12.20;;;6.90;;
77117;SDS011;66072;50.238;19.228;2023-04-06T13:00:29;9.60;;;6.40;;
77117;SDS011;66072;50.238;19.228;2023-04-06T13:02:56;8.40;;;5.10;;
77117;SDS011;66072;50.238;19.228;2023-04-06T13:05:24;9.10;;;5.80;;
77117;SDS011;66072;50.238;19.228;2023-04-06T13:07:54;12.00;;;7.60;;
77117;SDS011;66072;50.238;19.228;2023-04-06T13:10:22;9.30;;;4.60;;
77117;SDS011;66072;50.238;19.228;2023-04-06T13:12:50;10.00;;;7.60;;
77117;SDS011;66072;50.238;19.228;2023-04-06T13:15:17;6.10;;;3.90;;
77117;SDS011;66072;50.238;19.228;2023-04-06T13:17:45;8.70;;;5.20;;
77117;SDS011;66072;50.238;19.228;2023-04-06T13:20:12;9.10;;;6.00;;
77117;SDS011;66072;50.238;19.228;2023-04-06T13:22:40;11.60;;;8.20;;
77117;SDS011;66072;50.238;19.228;2023-04-06T13:25:08;11.50;;;7.00;;
77117;SDS011;66072;50.238;19.228;2023-04-06T13:27:35;10.90;;;7.40;;
77117;SDS011;66072;50.238;19.228;2023-04-06T13:30:03;12.70;;;9.10;;
77117;SDS011;66072;50.238;19.228;2023-04-06T13:32:32;12.60;;;8.10;;
77117;SDS011;66072;50.238;19.228;2023-04-06T13:35:00;11.30;;;8.40;;
77117;SDS011;66072;50.238;19.228;2023-04-06T13:37:28;11.10;;;7.40;;
77117;SDS011;66072;50.238;19.228;2023-04-06T13:39:55;10.60;;;7.60;;
77117;SDS011;66072;50.238;19.228;2023-04-06T13:42:23;12.10;;;8.00;;
77117;SDS011;66072;50.238;19.228;2023-04-06T13:44:50;15.40;;;10.20;;
77117;SDS011;66072;50.238;19.228;2023-04-06T13:47:18;13.30;;;7.70;;
77117;SDS011;66072;50.238;19.228;2023-04-06T13:49:46;14.50;;;9.80;;
77117;SDS011;66072;50.238;19.228;2023-04-06T13:52:14;13.80;;;9.10;;
77117;SDS011;66072;50.238;19.228;2023-04-06T13:54:41;14.50;;;9.40;;
77117;SDS011;66072;50.238;19.228;2023-04-06T13:57:09;9.20;;;7.30;;
77117;SDS011;66072;50.238;19.228;2023-04-06T13:59:37;9.00;;;6.10;;
77117;SDS011;66072;50.238;19.228;2023-04-06T14:02:06;18.00;;;9.60;;
77117;SDS011;66072;50.238;19.228;2023-04-06T14:04:36;14.50;;;9.20;;
77117;SDS011;66072;50.238;19.228;2023-04-06T14:07:03;14.20;;;9.00;;
77117;SDS011;66072;50.238;19.228;2023-04-06T14:09:31;10.80;;;6.00;;
77117;SDS011;66072;50.238;19.228;2023-04-06T14:11:59;14.90;;;10.00;;
77117;SDS011;66072;50.238;19.228;2023-04-06T14:14:26;11.20;;;7.50;;
77117;SDS011;66072;50.238;19.228;2023-04-06T14:16:54;20.00;;;13.60;;
77117;SDS011;66072;50.238;19.228;2023-04-06T14:19:22;20.50;;;11.90;;
77117;SDS011;66072;50.238;19.228;2023-04-06T14:21:50;15.40;;;10.00;;
77117;SDS011;66072;50.238;19.228;2023-04-06T14:24:17;16.30;;;10.50;;
77117;SDS011;66072;50.238;19.228;2023-04-06T14:26:45;14.10;;;8.90;;
77117;SDS011;66072;50.238;19.228;2023-04-06T14:29:12;14.80;;;8.80;;
77117;SDS011;66072;50.238;19.228;2023-04-06T14:31:40;16.20;;;11.80;;
77117;SDS011;66072;50.238;19.228;2023-04-06T14:34:08;8.70;;;5.70;;
77117;SDS011;66072;50.238;19.228;2023-04-06T14:36:35;14.00;;;8.90;;
77117;SDS011;66072;50.238;19.228;2023-04-06T14:39:03;20.00;;;13.50;;